sensor_id;sensor_type;location;lat;lon;timestamp;pressure;altitude;pressure_sealevel;temperature;humidity
73600;BME280;61877;48.246;9.220;2023-05-03T00:00:49;94817.31;;;4.82;88.98
73600;BME280;61877;48.246;9.220;2023-05-03T00:03:15;94826.19;;;4.73;89.05
73600;BME280;61877;48.246;9.220;2023-05-03T00:05:42;94815.06;;;4.71;88.80
73600;BME280;61877;48.246;9.220;2023-05-03T00:08:08;94815.16;;;4.61;88.68
73600;BME280;61877;48.246;9.220;2023-05-03T00:10:33;94814.66;;;4.59;88.83
73600;BME280;61877;48.246;9.220;2023-05-03T00:13:00;94820.00;;;4.54;88.28
73600;BME280;61877;48.246;9.220;2023-05-03T00:15:26;94820.88;;;4.49;88.79
73600;BME280;61877;48.246;9.220;2023-05-03T00:17:54;94818.47;;;4.48;88.60
73600;BME280;61877;48.246;9.220;2023-05-03T00:20:20;94829.66;;;4.45;89.13
73600;BME280;61877;48.246;9.220;2023-05-03T00:22:49;94817.97;;;4.46;88.41
73600;BME280;61877;48.246;9.220;2023-05-03T00:25:14;94821.41;;;4.46;88.52
73600;BME280;61877;48.246;9.220;2023-05-03T00:27:40;94810.06;;;4.41;88.86
73600;BME280;61877;48.246;9.220;2023-05-03T00:30:08;94812.72;;;4.41;89.18
73600;BME280;61877;48.246;9.220;2023-05-03T00:32:34;94814.09;;;4.33;88.73
73600;BME280;61877;48.246;9.220;2023-05-03T00:34:59;94809.63;;;4.29;89.01
73600;BME280;61877;48.246;9.220;2023-05-03T00:37:25;94813.91;;;4.25;89.52
73600;BME280;61877;48.246;9.220;2023-05-03T00:39:51;94807.25;;;4.27;89.84
73600;BME280;61877;48.246;9.220;2023-05-03T00:42:17;94803.28;;;4.25;89.38
73600;BME280;61877;48.246;9.220;2023-05-03T00:44:49;94802.19;;;4.31;88.37
73600;BME280;61877;48.246;9.220;2023-05-03T00:47:16;94797.50;;;4.23;89.37
73600;BME280;61877;48.246;9.220;2023-05-03T00:49:42;94802.81;;;4.23;89.18
73600;BME280;61877;48.246;9.220;2023-05-03T00:52:14;94803.28;;;4.25;89.15
73600;BME280;61877;48.246;9.220;2023-05-03T00:55:08;94799.91;;;4.19;89.28
73600;BME280;61877;48.246;9.220;2023-05-03T00:57:34;94807.06;;;4.19;89.44
73600;BME280;61877;48.246;9.220;2023-05-03T01:00:00;94805.25;;;4.14;89.78
73600;BME280;61877;48.246;9.220;2023-05-03T01:02:27;94805.25;;;4.14;89.10
73600;BME280;61877;48.246;9.220;2023-05-03T01:04:53;94807.69;;;4.11;89.13
73600;BME280;61877;48.246;9.220;2023-05-03T01:07:24;94798.72;;;4.02;89.13
73600;BME280;61877;48.246;9.220;2023-05-03T01:09:59;94804.34;;;3.95;88.61
73600;BME280;61877;48.246;9.220;2023-05-03T01:12:36;94794.88;;;3.89;89.73
73600;BME280;61877;48.246;9.220;2023-05-03T01:15:11;94804.69;;;3.88;89.92
73600;BME280;61877;48.246;9.220;2023-05-03T01:17:49;94797.50;;;3.89;89.78
73600;BME280;61877;48.246;9.220;2023-05-03T01:20:17;94807.09;;;3.85;89.92
73600;BME280;61877;48.246;9.220;2023-05-03T01:22:51;94802.09;;;3.78;90.99
73600;BME280;61877;48.246;9.220;2023-05-03T01:25:21;94807.97;;;3.75;90.21
73600;BME280;61877;48.246;9.220;2023-05-03T01:27:46;94808.78;;;3.76;90.34
73600;BME280;61877;48.246;9.220;2023-05-03T01:30:12;94812.47;;;3.75;90.81
73600;BME280;61877;48.246;9.220;2023-05-03T01:32:46;94809.31;;;3.73;90.09
73600;BME280;61877;48.246;9.220;2023-05-03T01:35:29;94802.69;;;3.70;90.65
73600;BME280;61877;48.246;9.220;2023-05-03T01:37:58;94803.00;;;3.64;89.83
73600;BME280;61877;48.246;9.220;2023-05-03T01:40:27;94802.25;;;3.58;90.10
73600;BME280;61877;48.246;9.220;2023-05-03T01:42:56;94801.78;;;3.51;90.46
73600;BME280;61877;48.246;9.220;2023-05-03T01:45:22;94796.72;;;3.50;91.40
73600;BME280;61877;48.246;9.220;2023-05-03T01:47:49;94802.03;;;3.50;90.61
73600;BME280;61877;48.246;9.220;2023-05-03T01:50:14;94797.53;;;3.50;90.75
73600;BME280;61877;48.246;9.220;2023-05-03T01:52:40;94793.88;;;3.46;90.37
73600;BME280;61877;48.246;9.220;2023-05-03T01:55:06;94794.91;;;3.45;90.23
73600;BME280;61877;48.246;9.220;2023-05-03T01:57:36;94786.72;;;3.42;90.04
73600;BME280;61877;48.246;9.220;2023-05-03T02:00:20;94789.63;;;3.40;91.02
73600;BME280;61877;48.246;9.220;2023-05-03T02:02:46;94785.69;;;3.38;90.81
73600;BME280;61877;48.246;9.220;2023-05-03T02:05:12;94782.28;;;3.32;90.52
73600;BME280;61877;48.246;9.220;2023-05-03T02:07:37;94782.00;;;3.34;90.51
73600;BME280;61877;48.246;9.220;2023-05-03T02:10:04;94783.59;;;3.35;90.12
73600;BME280;61877;48.246;9.220;2023-05-03T02:12:39;94785.22;;;3.26;90.43
73600;BME280;61877;48.246;9.220;2023-05-03T02:15:06;94784.72;;;3.24;90.85
73600;BME280;61877;48.246;9.220;2023-05-03T02:17:31;94775.69;;;3.25;90.09
73600;BME280;61877;48.246;9.220;2023-05-03T02:19:57;94786.59;;;3.23;91.10
73600;BME280;61877;48.246;9.220;2023-05-03T02:22:31;94780.66;;;3.36;90.18
73600;BME280;61877;48.246;9.220;2023-05-03T02:25:26;94782.31;;;3.27;91.11
73600;BME280;61877;48.246;9.220;2023-05-03T02:27:59;94782.59;;;3.21;90.98
73600;BME280;61877;48.246;9.220;2023-05-03T02:30:25;94782.63;;;3.16;91.21
73600;BME280;61877;48.246;9.220;2023-05-03T02:32:50;94785.56;;;3.14;91.31
73600;BME280;61877;48.246;9.220;2023-05-03T02:35:19;94784.03;;;3.03;91.49
73600;BME280;61877;48.246;9.220;2023-05-03T02:37:44;94778.25;;;2.96;91.65
73600;BME280;61877;48.246;9.220;2023-05-03T02:40:11;94787.19;;;3.05;91.27
73600;BME280;61877;48.246;9.220;2023-05-03T02:42:37;94785.31;;;3.11;90.63
73600;BME280;61877;48.246;9.220;2023-05-03T02:45:04;94783.47;;;3.11;90.86
73600;BME280;61877;48.246;9.220;2023-05-03T02:47:30;94785.38;;;3.01;90.92
73600;BME280;61877;48.246;9.220;2023-05-03T02:49:56;94779.28;;;2.95;91.08
73600;BME280;61877;48.246;9.220;2023-05-03T02:52:21;94776.41;;;2.92;90.92
73600;BME280;61877;48.246;9.220;2023-05-03T02:54:47;94778.28;;;2.86;91.51
73600;BME280;61877;48.246;9.220;2023-05-03T02:57:12;94774.81;;;2.91;92.00
73600;BME280;61877;48.246;9.220;2023-05-03T02:59:38;94782.78;;;2.86;90.81
73600;BME280;61877;48.246;9.220;2023-05-03T03:02:05;94788.09;;;2.86;91.31
73600;BME280;61877;48.246;9.220;2023-05-03T03:04:30;94776.63;;;2.95;91.05
73600;BME280;61877;48.246;9.220;2023-05-03T03:06:55;94774.50;;;2.97;90.75
73600;BME280;61877;48.246;9.220;2023-05-03T03:09:21;94773.22;;;2.95;91.02
73600;BME280;61877;48.246;9.220;2023-05-03T03:11:49;94774.50;;;2.97;90.50
73600;BME280;61877;48.246;9.220;2023-05-03T03:14:15;94778.78;;;2.98;90.75
73600;BME280;61877;48.246;9.220;2023-05-03T03:16:40;94768.66;;;3.00;90.15
73600;BME280;61877;48.246;9.220;2023-05-03T03:19:08;94778.25;;;2.96;90.09
73600;BME280;61877;48.246;9.220;2023-05-03T03:21:34;94782.00;;;2.90;90.66
73600;BME280;61877;48.246;9.220;2023-05-03T03:24:00;94782.50;;;2.87;90.84
73600;BME280;61877;48.246;9.220;2023-05-03T03:26:26;94776.22;;;2.78;91.13
73600;BME280;61877;48.246;9.220;2023-05-03T03:28:52;94780.72;;;2.73;91.86
73600;BME280;61877;48.246;9.220;2023-05-03T03:31:17;94781.78;;;2.77;91.30
73600;BME280;61877;48.246;9.220;2023-05-03T03:33:43;94785.78;;;2.69;90.95
73600;BME280;61877;48.246;9.220;2023-05-03T03:36:10;94777.59;;;2.60;91.28
73600;BME280;61877;48.246;9.220;2023-05-03T03:38:35;94784.22;;;2.63;91.81
73600;BME280;61877;48.246;9.220;2023-05-03T03:41:01;94783.16;;;2.59;91.10
73600;BME280;61877;48.246;9.220;2023-05-03T03:43:27;94781.59;;;2.58;91.69
73600;BME280;61877;48.246;9.220;2023-05-03T03:45:53;94773.38;;;2.59;91.15
73600;BME280;61877;48.246;9.220;2023-05-03T03:51:25;94782.91;;;2.55;91.26
73600;BME280;61877;48.246;9.220;2023-05-03T03:56:57;94788.47;;;2.59;91.47
73600;BME280;61877;48.246;9.220;2023-05-03T03:59:22;94783.16;;;2.64;91.16
73600;BME280;61877;48.246;9.220;2023-05-03T04:01:51;94791.09;;;2.64;91.29
73600;BME280;61877;48.246;9.220;2023-05-03T04:04:16;94787.88;;;2.67;91.45
73600;BME280;61877;48.246;9.220;2023-05-03T04:06:44;94785.25;;;2.67;90.89
73600;BME280;61877;48.246;9.220;2023-05-03T04:12:16;94788.94;;;2.71;90.55
73600;BME280;61877;48.246;9.220;2023-05-03T04:15:06;94793.72;;;2.69;91.31
73600;BME280;61877;48.246;9.220;2023-05-03T04:17:37;94792.44;;;2.61;91.52
73600;BME280;61877;48.246;9.220;2023-05-03T04:20:03;94790.06;;;2.60;91.61
73600;BME280;61877;48.246;9.220;2023-05-03T04:22:58;94794.22;;;2.76;91.23
73600;BME280;61877;48.246;9.220;2023-05-03T04:25:37;94798.19;;;2.79;91.15
73600;BME280;61877;48.246;9.220;2023-05-03T04:28:05;94796.88;;;2.76;91.33
73600;BME280;61877;48.246;9.220;2023-05-03T04:31:07;94800.31;;;2.77;91.50
73600;BME280;61877;48.246;9.220;2023-05-03T04:33:37;94800.03;;;2.83;90.97
73600;BME280;61877;48.246;9.220;2023-05-03T04:36:29;94804.78;;;2.86;90.72
73600;BME280;61877;48.246;9.220;2023-05-03T04:39:28;94805.28;;;2.93;91.30
73600;BME280;61877;48.246;9.220;2023-05-03T04:42:02;94792.78;;;2.99;91.10
73600;BME280;61877;48.246;9.220;2023-05-03T04:47:31;94806.75;;;3.19;91.00
73600;BME280;61877;48.246;9.220;2023-05-03T04:49:56;94801.16;;;3.21;90.23
73600;BME280;61877;48.246;9.220;2023-05-03T04:55:27;94804.47;;;3.46;89.40
73600;BME280;61877;48.246;9.220;2023-05-03T04:58:12;94810.19;;;3.58;88.92
73600;BME280;61877;48.246;9.220;2023-05-03T05:01:00;94815.09;;;3.80;88.80
73600;BME280;61877;48.246;9.220;2023-05-03T05:03:39;94819.56;;;3.89;89.22
73600;BME280;61877;48.246;9.220;2023-05-03T05:06:05;94825.31;;;3.96;89.62
73600;BME280;61877;48.246;9.220;2023-05-03T05:08:30;94816.97;;;4.08;88.58
73600;BME280;61877;48.246;9.220;2023-05-03T05:10:57;94819.50;;;4.23;87.81
73600;BME280;61877;48.246;9.220;2023-05-03T05:13:22;94815.94;;;4.38;87.36
73600;BME280;61877;48.246;9.220;2023-05-03T05:16:20;94822.66;;;4.54;86.24
73600;BME280;61877;48.246;9.220;2023-05-03T05:18:45;94818.16;;;4.54;85.21
73600;BME280;61877;48.246;9.220;2023-05-03T05:21:11;94826.69;;;4.75;84.55
73600;BME280;61877;48.246;9.220;2023-05-03T05:24:07;94823.69;;;5.05;84.03
73600;BME280;61877;48.246;9.220;2023-05-03T05:33:11;94831.09;;;5.50;83.70
73600;BME280;61877;48.246;9.220;2023-05-03T05:35:46;94833.75;;;5.50;84.29
73600;BME280;61877;48.246;9.220;2023-05-03T05:38:12;94826.06;;;5.86;82.89
73600;BME280;61877;48.246;9.220;2023-05-03T05:43:46;94827.03;;;6.40;81.81
73600;BME280;61877;48.246;9.220;2023-05-03T05:46:12;94830.13;;;6.15;81.98
73600;BME280;61877;48.246;9.220;2023-05-03T05:48:43;94836.13;;;6.39;84.98
73600;BME280;61877;48.246;9.220;2023-05-03T05:51:38;94831.38;;;6.50;81.53
73600;BME280;61877;48.246;9.220;2023-05-03T05:57:12;94833.94;;;7.01;80.86
73600;BME280;61877;48.246;9.220;2023-05-03T06:02:40;94845.56;;;7.05;82.17
73600;BME280;61877;48.246;9.220;2023-05-03T06:05:11;94842.09;;;7.31;81.37
73600;BME280;61877;48.246;9.220;2023-05-03T06:08:07;94846.81;;;7.61;81.06
73600;BME280;61877;48.246;9.220;2023-05-03T06:11:00;94839.00;;;7.65;82.50
73600;BME280;61877;48.246;9.220;2023-05-03T06:13:38;94837.63;;;7.89;84.06
73600;BME280;61877;48.246;9.220;2023-05-03T06:16:39;94838.28;;;8.09;84.97
73600;BME280;61877;48.246;9.220;2023-05-03T06:19:05;94836.44;;;8.18;87.20
73600;BME280;61877;48.246;9.220;2023-05-03T06:21:35;94830.13;;;8.58;86.49
73600;BME280;61877;48.246;9.220;2023-05-03T06:24:03;94834.31;;;8.72;86.31
73600;BME280;61877;48.246;9.220;2023-05-03T06:26:37;94834.47;;;9.06;84.42
73600;BME280;61877;48.246;9.220;2023-05-03T06:29:08;94833.28;;;9.30;83.50
73600;BME280;61877;48.246;9.220;2023-05-03T06:31:37;94835.56;;;9.53;83.41
73600;BME280;61877;48.246;9.220;2023-05-03T06:37:46;94824.50;;;9.38;83.57
73600;BME280;61877;48.246;9.220;2023-05-03T06:40:15;94828.66;;;9.95;82.23
73600;BME280;61877;48.246;9.220;2023-05-03T06:42:41;94826.66;;;10.17;80.93
73600;BME280;61877;48.246;9.220;2023-05-03T06:45:10;94826.00;;;10.03;80.44
73600;BME280;61877;48.246;9.220;2023-05-03T06:47:37;94822.56;;;10.20;80.93
73600;BME280;61877;48.246;9.220;2023-05-03T06:50:08;94832.00;;;10.00;80.85
73600;BME280;61877;48.246;9.220;2023-05-03T06:55:37;94824.59;;;10.40;80.41
73600;BME280;61877;48.246;9.220;2023-05-03T06:58:05;94824.16;;;10.21;79.93
73600;BME280;61877;48.246;9.220;2023-05-03T07:01:09;94816.94;;;10.76;78.97
73600;BME280;61877;48.246;9.220;2023-05-03T07:03:55;94809.66;;;10.85;77.39
73600;BME280;61877;48.246;9.220;2023-05-03T07:06:40;94816.25;;;10.96;76.32
73600;BME280;61877;48.246;9.220;2023-05-03T07:09:08;94818.19;;;11.25;76.46
73600;BME280;61877;48.246;9.220;2023-05-03T07:12:09;94812.34;;;11.23;77.29
73600;BME280;61877;48.246;9.220;2023-05-03T07:14:43;94812.00;;;11.24;76.42
73600;BME280;61877;48.246;9.220;2023-05-03T07:20:12;94818.34;;;10.91;76.41
73600;BME280;61877;48.246;9.220;2023-05-03T07:22:37;94815.06;;;11.52;74.44
73600;BME280;61877;48.246;9.220;2023-05-03T07:25:37;94821.00;;;11.57;75.10
73600;BME280;61877;48.246;9.220;2023-05-03T07:28:07;94817.88;;;11.55;74.15
73600;BME280;61877;48.246;9.220;2023-05-03T07:30:32;94817.69;;;11.90;72.62
73600;BME280;61877;48.246;9.220;2023-05-03T07:33:16;94818.31;;;11.66;74.37
73600;BME280;61877;48.246;9.220;2023-05-03T07:36:22;94815.25;;;11.97;72.36
73600;BME280;61877;48.246;9.220;2023-05-03T07:38:50;94813.22;;;12.14;72.13
73600;BME280;61877;48.246;9.220;2023-05-03T07:41:53;94805.88;;;12.03;72.28
73600;BME280;61877;48.246;9.220;2023-05-03T07:44:20;94800.97;;;12.58;72.34
73600;BME280;61877;48.246;9.220;2023-05-03T07:46:45;94794.69;;;12.66;69.65
73600;BME280;61877;48.246;9.220;2023-05-03T07:49:11;94806.81;;;13.05;68.01
73600;BME280;61877;48.246;9.220;2023-05-03T07:51:40;94809.75;;;13.24;68.00
73600;BME280;61877;48.246;9.220;2023-05-03T07:54:06;94800.69;;;12.95;68.88
73600;BME280;61877;48.246;9.220;2023-05-03T07:56:35;94796.84;;;13.17;67.58
73600;BME280;61877;48.246;9.220;2023-05-03T07:59:10;94791.09;;;13.55;67.17
73600;BME280;61877;48.246;9.220;2023-05-03T08:01:42;94786.31;;;14.00;65.15
73600;BME280;61877;48.246;9.220;2023-05-03T08:04:23;94787.53;;;13.39;67.16
73600;BME280;61877;48.246;9.220;2023-05-03T08:06:49;94790.31;;;13.66;67.20
73600;BME280;61877;48.246;9.220;2023-05-03T08:09:14;94794.84;;;13.26;66.98
73600;BME280;61877;48.246;9.220;2023-05-03T08:12:01;94790.09;;;13.11;67.20
73600;BME280;61877;48.246;9.220;2023-05-03T08:14:26;94796.19;;;13.44;67.22
73600;BME280;61877;48.246;9.220;2023-05-03T08:16:54;94790.53;;;13.73;65.85
73600;BME280;61877;48.246;9.220;2023-05-03T08:19:25;94791.94;;;13.95;66.14
73600;BME280;61877;48.246;9.220;2023-05-03T08:22:03;94777.84;;;14.53;63.78
73600;BME280;61877;48.246;9.220;2023-05-03T08:24:32;94778.28;;;14.55;62.49
73600;BME280;61877;48.246;9.220;2023-05-03T08:26:57;94776.13;;;14.76;63.14
73600;BME280;61877;48.246;9.220;2023-05-03T08:29:50;94781.13;;;14.90;62.36
73600;BME280;61877;48.246;9.220;2023-05-03T08:32:17;94780.69;;;15.19;60.43
73600;BME280;61877;48.246;9.220;2023-05-03T08:34:43;94779.44;;;15.79;60.15
73600;BME280;61877;48.246;9.220;2023-05-03T08:37:10;94780.56;;;15.43;59.73
73600;BME280;61877;48.246;9.220;2023-05-03T08:39:36;94787.84;;;14.96;60.25
73600;BME280;61877;48.246;9.220;2023-05-03T08:42:07;94783.19;;;14.81;60.27
73600;BME280;61877;48.246;9.220;2023-05-03T08:47:40;94781.66;;;15.26;59.93
73600;BME280;61877;48.246;9.220;2023-05-03T08:50:10;94792.03;;;15.09;61.29
73600;BME280;61877;48.246;9.220;2023-05-03T08:52:36;94790.94;;;15.41;60.86
73600;BME280;61877;48.246;9.220;2023-05-03T08:55:04;94787.59;;;15.98;58.71
73600;BME280;61877;48.246;9.220;2023-05-03T08:57:33;94794.53;;;16.33;57.93
73600;BME280;61877;48.246;9.220;2023-05-03T08:59:59;94787.22;;;16.15;57.98
73600;BME280;61877;48.246;9.220;2023-05-03T09:02:24;94792.22;;;15.63;57.44
73600;BME280;61877;48.246;9.220;2023-05-03T09:04:55;94790.97;;;16.10;57.31
73600;BME280;61877;48.246;9.220;2023-05-03T09:07:24;94778.03;;;16.19;57.51
73600;BME280;61877;48.246;9.220;2023-05-03T09:09:50;94781.78;;;16.91;56.62
73600;BME280;61877;48.246;9.220;2023-05-03T09:12:33;94783.91;;;17.24;53.81
73600;BME280;61877;48.246;9.220;2023-05-03T09:15:02;94786.25;;;17.03;53.79
73600;BME280;61877;48.246;9.220;2023-05-03T09:17:29;94790.78;;;17.63;53.38
73600;BME280;61877;48.246;9.220;2023-05-03T09:19:56;94796.06;;;16.50;53.79
73600;BME280;61877;48.246;9.220;2023-05-03T09:22:30;94793.91;;;17.65;52.16
73600;BME280;61877;48.246;9.220;2023-05-03T09:25:00;94786.66;;;17.05;53.02
73600;BME280;61877;48.246;9.220;2023-05-03T09:27:26;94785.75;;;17.20;52.57
73600;BME280;61877;48.246;9.220;2023-05-03T09:30:17;94793.50;;;18.15;54.04
73600;BME280;61877;48.246;9.220;2023-05-03T09:32:47;94785.56;;;17.77;50.49
73600;BME280;61877;48.246;9.220;2023-05-03T09:35:15;94790.72;;;18.12;50.59
73600;BME280;61877;48.246;9.220;2023-05-03T09:38:08;94786.38;;;18.63;50.47
73600;BME280;61877;48.246;9.220;2023-05-03T09:40:56;94789.09;;;18.99;48.74
73600;BME280;61877;48.246;9.220;2023-05-03T09:43:22;94777.44;;;18.99;49.81
73600;BME280;61877;48.246;9.220;2023-05-03T09:45:47;94790.09;;;18.84;46.74
73600;BME280;61877;48.246;9.220;2023-05-03T09:48:16;94782.06;;;18.58;46.63
73600;BME280;61877;48.246;9.220;2023-05-03T09:50:43;94764.75;;;19.10;47.14
73600;BME280;61877;48.246;9.220;2023-05-03T09:53:09;94774.50;;;18.78;47.63
73600;BME280;61877;48.246;9.220;2023-05-03T09:55:36;94765.59;;;19.17;45.88
73600;BME280;61877;48.246;9.220;2023-05-03T09:58:03;94760.13;;;18.77;46.23
73600;BME280;61877;48.246;9.220;2023-05-03T10:00:29;94770.25;;;18.47;48.34
73600;BME280;61877;48.246;9.220;2023-05-03T10:02:55;94764.59;;;18.96;47.92
73600;BME280;61877;48.246;9.220;2023-05-03T10:05:21;94758.84;;;19.41;47.93
73600;BME280;61877;48.246;9.220;2023-05-03T10:07:51;94761.13;;;18.03;50.03
73600;BME280;61877;48.246;9.220;2023-05-03T10:10:22;94761.13;;;18.62;50.85
73600;BME280;61877;48.246;9.220;2023-05-03T10:12:48;94759.75;;;18.79;45.58
73600;BME280;61877;48.246;9.220;2023-05-03T10:15:15;94760.34;;;19.39;45.38
73600;BME280;61877;48.246;9.220;2023-05-03T10:17:42;94763.44;;;19.37;44.70
73600;BME280;61877;48.246;9.220;2023-05-03T10:20:14;94758.31;;;19.76;42.76
73600;BME280;61877;48.246;9.220;2023-05-03T10:23:09;94759.66;;;19.49;40.70
73600;BME280;61877;48.246;9.220;2023-05-03T10:25:35;94764.91;;;20.29;43.91
73600;BME280;61877;48.246;9.220;2023-05-03T10:28:01;94770.16;;;19.06;43.74
73600;BME280;61877;48.246;9.220;2023-05-03T10:30:28;94759.66;;;20.03;41.84
73600;BME280;61877;48.246;9.220;2023-05-03T10:32:54;94762.91;;;19.68;43.29
73600;BME280;61877;48.246;9.220;2023-05-03T10:35:20;94758.66;;;18.83;42.75
73600;BME280;61877;48.246;9.220;2023-05-03T10:37:47;94756.81;;;18.94;42.66
73600;BME280;61877;48.246;9.220;2023-05-03T10:40:15;94751.53;;;20.10;42.19
73600;BME280;61877;48.246;9.220;2023-05-03T10:42:45;94756.03;;;19.85;42.61
73600;BME280;61877;48.246;9.220;2023-05-03T10:45:22;94755.69;;;19.39;43.38
73600;BME280;61877;48.246;9.220;2023-05-03T10:48:16;94756.97;;;20.99;41.06
73600;BME280;61877;48.246;9.220;2023-05-03T10:50:42;94762.00;;;20.01;40.56
73600;BME280;61877;48.246;9.220;2023-05-03T10:53:07;94762.16;;;19.68;42.76
73600;BME280;61877;48.246;9.220;2023-05-03T10:56:01;94762.22;;;20.36;43.13
73600;BME280;61877;48.246;9.220;2023-05-03T10:58:26;94758.81;;;19.92;41.45
73600;BME280;61877;48.246;9.220;2023-05-03T11:00:52;94761.94;;;19.40;41.42
73600;BME280;61877;48.246;9.220;2023-05-03T11:06:10;94753.47;;;20.06;41.51
73600;BME280;61877;48.246;9.220;2023-05-03T11:08:50;94751.97;;;20.15;42.29
73600;BME280;61877;48.246;9.220;2023-05-03T11:11:17;94748.31;;;18.99;43.79
73600;BME280;61877;48.246;9.220;2023-05-03T11:13:42;94745.19;;;18.97;45.34
73600;BME280;61877;48.246;9.220;2023-05-03T11:16:08;94747.34;;;20.19;43.93
73600;BME280;61877;48.246;9.220;2023-05-03T11:18:33;94748.25;;;19.80;43.18
73600;BME280;61877;48.246;9.220;2023-05-03T11:20:59;94742.78;;;19.80;42.33
73600;BME280;61877;48.246;9.220;2023-05-03T11:23:25;94745.63;;;20.73;42.21
73600;BME280;61877;48.246;9.220;2023-05-03T11:25:51;94745.59;;;20.69;42.35
73600;BME280;61877;48.246;9.220;2023-05-03T11:28:18;94737.94;;;21.13;39.79
73600;BME280;61877;48.246;9.220;2023-05-03T11:30:45;94737.56;;;21.39;41.15
73600;BME280;61877;48.246;9.220;2023-05-03T11:33:11;94735.59;;;21.57;40.63
73600;BME280;61877;48.246;9.220;2023-05-03T11:35:36;94731.47;;;22.74;38.11
73600;BME280;61877;48.246;9.220;2023-05-03T11:38:02;94734.06;;;21.60;39.66
73600;BME280;61877;48.246;9.220;2023-05-03T11:40:27;94740.88;;;20.59;38.52
73600;BME280;61877;48.246;9.220;2023-05-03T11:42:53;94737.38;;;20.62;39.47
73600;BME280;61877;48.246;9.220;2023-05-03T11:45:21;94724.28;;;21.10;41.69
73600;BME280;61877;48.246;9.220;2023-05-03T11:47:47;94729.69;;;20.06;40.89
73600;BME280;61877;48.246;9.220;2023-05-03T11:50:13;94727.34;;;19.98;41.69
73600;BME280;61877;48.246;9.220;2023-05-03T11:52:39;94727.22;;;19.80;42.11
73600;BME280;61877;48.246;9.220;2023-05-03T11:55:06;94731.47;;;19.27;43.10
73600;BME280;61877;48.246;9.220;2023-05-03T11:57:31;94726.75;;;19.20;43.35
73600;BME280;61877;48.246;9.220;2023-05-03T12:00:09;94716.63;;;20.26;41.26
73600;BME280;61877;48.246;9.220;2023-05-03T12:02:36;94715.31;;;21.23;41.56
73600;BME280;61877;48.246;9.220;2023-05-03T12:05:01;94705.97;;;21.24;38.58
73600;BME280;61877;48.246;9.220;2023-05-03T12:07:29;94712.78;;;20.41;39.86
73600;BME280;61877;48.246;9.220;2023-05-03T12:09:55;94721.22;;;19.13;40.91
73600;BME280;61877;48.246;9.220;2023-05-03T12:12:20;94721.91;;;19.00;42.85
73600;BME280;61877;48.246;9.220;2023-05-03T12:14:56;94715.38;;;18.68;42.85
73600;BME280;61877;48.246;9.220;2023-05-03T12:17:32;94715.66;;;18.59;43.81
73600;BME280;61877;48.246;9.220;2023-05-03T12:20:14;94709.84;;;19.41;41.53
73600;BME280;61877;48.246;9.220;2023-05-03T12:22:40;94708.28;;;19.98;39.29
73600;BME280;61877;48.246;9.220;2023-05-03T12:25:06;94716.34;;;19.84;39.23
73600;BME280;61877;48.246;9.220;2023-05-03T12:27:31;94699.56;;;20.50;39.73
73600;BME280;61877;48.246;9.220;2023-05-03T12:29:57;94699.69;;;20.92;38.80
73600;BME280;61877;48.246;9.220;2023-05-03T12:32:24;94698.94;;;21.06;37.15
73600;BME280;61877;48.246;9.220;2023-05-03T12:34:53;94691.47;;;20.85;35.86
73600;BME280;61877;48.246;9.220;2023-05-03T12:37:21;94691.91;;;21.05;36.45
73600;BME280;61877;48.246;9.220;2023-05-03T12:39:47;94701.69;;;21.55;35.32
73600;BME280;61877;48.246;9.220;2023-05-03T12:42:14;94696.88;;;22.19;34.05
73600;BME280;61877;48.246;9.220;2023-05-03T12:44:40;94697.38;;;21.79;35.91
73600;BME280;61877;48.246;9.220;2023-05-03T12:47:10;94692.72;;;21.09;36.53
73600;BME280;61877;48.246;9.220;2023-05-03T12:49:36;94695.31;;;19.77;38.92
73600;BME280;61877;48.246;9.220;2023-05-03T12:52:03;94691.53;;;21.38;40.70
73600;BME280;61877;48.246;9.220;2023-05-03T12:54:33;94696.75;;;22.47;37.84
73600;BME280;61877;48.246;9.220;2023-05-03T12:57:00;94694.25;;;21.34;39.13
73600;BME280;61877;48.246;9.220;2023-05-03T12:59:27;94692.34;;;21.17;40.06
73600;BME280;61877;48.246;9.220;2023-05-03T13:02:00;94694.09;;;20.46;37.67
73600;BME280;61877;48.246;9.220;2023-05-03T13:04:30;94700.72;;;20.42;39.76
73600;BME280;61877;48.246;9.220;2023-05-03T13:06:57;94700.72;;;20.42;38.55
73600;BME280;61877;48.246;9.220;2023-05-03T13:09:24;94693.47;;;19.95;40.51
73600;BME280;61877;48.246;9.220;2023-05-03T13:11:51;94692.47;;;20.28;40.69
73600;BME280;61877;48.246;9.220;2023-05-03T13:14:17;94695.00;;;20.86;38.28
73600;BME280;61877;48.246;9.220;2023-05-03T13:16:43;94690.63;;;20.46;40.14
73600;BME280;61877;48.246;9.220;2023-05-03T13:19:13;94686.41;;;20.77;37.69
73600;BME280;61877;48.246;9.220;2023-05-03T13:21:39;94682.34;;;20.28;39.27
73600;BME280;61877;48.246;9.220;2023-05-03T13:24:06;94685.16;;;20.53;40.04
73600;BME280;61877;48.246;9.220;2023-05-03T13:26:32;94678.06;;;18.65;41.71
73600;BME280;61877;48.246;9.220;2023-05-03T13:29:00;94686.69;;;19.65;43.97
73600;BME280;61877;48.246;9.220;2023-05-03T13:31:26;94674.78;;;21.43;36.93
73600;BME280;61877;48.246;9.220;2023-05-03T13:33:53;94676.34;;;21.09;36.37
73600;BME280;61877;48.246;9.220;2023-05-03T13:36:20;94664.53;;;20.66;38.16
73600;BME280;61877;48.246;9.220;2023-05-03T13:38:46;94668.72;;;19.53;40.05
73600;BME280;61877;48.246;9.220;2023-05-03T13:41:13;94666.22;;;18.83;40.47
73600;BME280;61877;48.246;9.220;2023-05-03T13:43:40;94664.06;;;19.03;40.02
73600;BME280;61877;48.246;9.220;2023-05-03T13:46:08;94663.81;;;20.94;35.68
73600;BME280;61877;48.246;9.220;2023-05-03T13:48:34;94654.72;;;22.20;32.19
73600;BME280;61877;48.246;9.220;2023-05-03T13:51:00;94660.69;;;24.80;33.19
73600;BME280;61877;48.246;9.220;2023-05-03T13:53:31;94652.03;;;25.81;29.90
73600;BME280;61877;48.246;9.220;2023-05-03T13:55:56;94646.25;;;26.37;27.24
73600;BME280;61877;48.246;9.220;2023-05-03T13:58:22;94655.38;;;27.57;27.30
73600;BME280;61877;48.246;9.220;2023-05-03T14:00:49;94657.47;;;25.38;30.26
73600;BME280;61877;48.246;9.220;2023-05-03T14:03:16;94658.75;;;24.47;30.42
73600;BME280;61877;48.246;9.220;2023-05-03T14:05:45;94659.69;;;23.62;31.83
73600;BME280;61877;48.246;9.220;2023-05-03T14:08:11;94658.06;;;22.59;34.13